createdAt,value
2018-07-22T00:02:12.593Z,100788.59
2018-07-22T00:04:41.622Z,100779.38
2018-07-22T00:07:10.713Z,100782.75
2018-07-22T00:09:40.126Z,100790.42
2018-07-22T00:12:09.226Z,100787.38
2018-07-22T00:14:38.524Z,100781.67
2018-07-22T00:17:07.600Z,100788.69
2018-07-22T00:19:36.684Z,100785.64
2018-07-22T00:22:05.980Z,100786.60
2018-07-22T00:24:35.071Z,100789.66
2018-07-22T00:27:04.096Z,100783.09
2018-07-22T00:29:33.131Z,100787.52
2018-07-22T00:32:02.348Z,100789.23
2018-07-22T00:34:31.590Z,100790.11
2018-07-22T00:37:00.652Z,100790.61
2018-07-22T00:39:29.804Z,100788.83
2018-07-22T00:41:59.429Z,100783.55
2018-07-22T00:44:28.656Z,100789.25
2018-07-22T00:46:57.670Z,100790.11
2018-07-22T00:49:26.804Z,100789.66
2018-07-22T00:51:55.865Z,100790.11
2018-07-22T00:54:24.996Z,100790.11
2018-07-22T00:56:54.069Z,100789.19
2018-07-22T00:59:23.152Z,100793.52
2018-07-22T01:01:52.222Z,100792.66
2018-07-22T01:04:21.300Z,100792.47
2018-07-22T01:06:50.422Z,100796.07
2018-07-22T01:09:19.477Z,100788.33
2018-07-22T01:11:48.564Z,100787.91
2018-07-22T01:14:17.768Z,100782.98
2018-07-22T01:16:46.836Z,100787.82
2018-07-22T01:19:15.853Z,100789.61
2018-07-22T01:21:45.082Z,100785.77
2018-07-22T01:24:14.136Z,100790.02
2018-07-22T01:26:43.375Z,100790.06
2018-07-22T01:29:12.427Z,100787.00
2018-07-22T01:31:41.480Z,100791.06
2018-07-22T01:34:10.544Z,100788.69
2018-07-22T01:36:39.627Z,100781.56
2018-07-22T01:39:09.892Z,100788.54
2018-07-22T01:41:39.141Z,100792.43
2018-07-22T01:44:08.441Z,100795.56
2018-07-22T01:46:37.716Z,100797.00
2018-07-22T01:49:06.773Z,100794.66
2018-07-22T01:51:35.819Z,100793.83
2018-07-22T01:54:04.903Z,100799.48
2018-07-22T01:56:33.902Z,100793.00
2018-07-22T01:59:03.166Z,100791.64
2018-07-22T02:01:32.229Z,100806.83
2018-07-22T02:04:01.253Z,100803.80
2018-07-22T02:06:30.307Z,100806.10
2018-07-22T02:08:59.779Z,100807.89
2018-07-22T02:11:28.844Z,100809.17
2018-07-22T02:13:57.907Z,100805.66
2018-07-22T02:16:26.999Z,100802.98
2018-07-22T02:18:56.064Z,100803.92
2018-07-22T02:21:25.134Z,100804.37
2018-07-22T02:23:54.161Z,100808.77
2018-07-22T02:26:23.327Z,100806.17
2018-07-22T02:28:52.453Z,100810.18
2018-07-22T02:31:21.599Z,100809.31
2018-07-22T02:33:50.657Z,100807.63
2018-07-22T02:36:19.783Z,100815.95
2018-07-22T02:38:48.847Z,100808.45
2018-07-22T02:41:17.933Z,100811.02
2018-07-22T02:43:47.113Z,100813.73
2018-07-22T02:46:16.273Z,100808.58
2018-07-22T02:48:45.283Z,100815.17
2018-07-22T02:51:14.463Z,100804.20
2018-07-22T02:53:43.502Z,100811.61
2018-07-22T02:56:12.800Z,100811.25
2018-07-22T02:58:41.895Z,100807.21
2018-07-22T03:01:10.912Z,100812.47
2018-07-22T03:03:39.989Z,100813.80
2018-07-22T03:06:09.022Z,100815.98
2018-07-22T03:08:38.046Z,100819.89
2018-07-22T03:11:07.417Z,100824.70
2018-07-22T03:13:36.480Z,100823.80
2018-07-22T03:16:05.831Z,100815.93
2018-07-22T03:18:34.875Z,100812.84
2018-07-22T03:21:03.964Z,100819.40
2018-07-22T03:23:33.056Z,100821.59
2018-07-22T03:26:02.069Z,100828.20
2018-07-22T03:28:31.171Z,100824.28
2018-07-22T03:31:00.252Z,100824.68
2018-07-22T03:33:29.332Z,100828.69
2018-07-22T03:35:59.145Z,100835.68
2018-07-22T03:38:28.944Z,100836.11
2018-07-22T03:40:57.995Z,100832.13
2018-07-22T03:43:27.085Z,100827.70
2018-07-22T03:45:56.183Z,100824.63
2018-07-22T03:48:25.244Z,100828.56
2018-07-22T03:50:54.316Z,100820.20
2018-07-22T03:53:23.456Z,100827.42
2018-07-22T03:55:52.524Z,100830.48
2018-07-22T03:58:21.592Z,100832.19
2018-07-22T04:00:50.753Z,100835.67
2018-07-22T04:03:20.035Z,100837.00
2018-07-22T04:05:49.124Z,100835.77
2018-07-22T04:08:18.271Z,100835.64
2018-07-22T04:10:47.324Z,100833.00
2018-07-22T04:13:16.412Z,100832.46
2018-07-22T04:15:45.524Z,100832.95
2018-07-22T04:18:14.622Z,100826.36
2018-07-22T04:20:43.703Z,100830.66
2018-07-22T04:23:12.762Z,100830.27
2018-07-22T04:25:41.831Z,100831.62
2018-07-22T04:28:10.958Z,100829.28
2018-07-22T04:30:40.029Z,100829.61
2018-07-22T04:33:09.146Z,100825.22
2018-07-22T04:35:38.240Z,100825.16
2018-07-22T04:38:07.451Z,100821.16
2018-07-22T04:40:36.482Z,100818.97
2018-07-22T04:43:05.576Z,100827.06
2018-07-22T04:45:34.709Z,100828.22
2018-07-22T04:48:03.768Z,100829.22
2018-07-22T04:50:32.871Z,100828.28
2018-07-22T04:53:02.155Z,100833.18
2018-07-22T04:55:31.246Z,100838.92
2018-07-22T04:58:00.344Z,100832.52
2018-07-22T05:00:29.458Z,100838.27
2018-07-22T05:02:58.767Z,100835.02
2018-07-22T05:05:27.824Z,100829.84
2018-07-22T05:07:56.879Z,100831.95
2018-07-22T05:10:26.480Z,100833.19
2018-07-22T05:12:55.568Z,100833.19
2018-07-22T05:15:24.612Z,100832.23
2018-07-22T05:17:53.647Z,100831.28
2018-07-22T05:20:22.955Z,100829.55
2018-07-22T05:22:52.033Z,100832.47
2018-07-22T05:25:21.079Z,100826.84
2018-07-22T05:27:50.204Z,100829.17
2018-07-22T05:30:19.255Z,100828.99
2018-07-22T05:32:48.551Z,100827.83
2018-07-22T05:35:17.763Z,100828.90
2018-07-22T05:37:46.848Z,100833.98
2018-07-22T05:40:15.987Z,100831.80
2018-07-22T05:42:45.659Z,100838.05
2018-07-22T05:45:14.752Z,100841.27
2018-07-22T05:47:43.852Z,100847.74
2018-07-22T05:50:12.909Z,100844.75
2018-07-22T05:52:42.047Z,100852.55
2018-07-22T05:55:11.549Z,100851.29
2018-07-22T05:57:40.689Z,100845.90
2018-07-22T06:00:10.793Z,100849.58
2018-07-22T06:02:39.892Z,100845.54
2018-07-22T06:05:09.307Z,100848.26
2018-07-22T06:07:38.519Z,100849.49
2018-07-22T06:10:07.959Z,100852.16
2018-07-22T06:12:37.069Z,100850.70
2018-07-22T06:15:07.271Z,100850.88
2018-07-22T06:17:36.495Z,100851.73
2018-07-22T06:20:06.845Z,100853.87
2018-07-22T06:22:36.099Z,100853.69
2018-07-22T06:25:05.588Z,100862.19
2018-07-22T06:27:34.785Z,100854.51
2018-07-22T06:30:04.050Z,100863.06
2018-07-22T06:32:33.670Z,100862.77
2018-07-22T06:35:02.816Z,100865.83
2018-07-22T06:37:31.870Z,100868.27
2018-07-22T06:40:00.898Z,100867.97
2018-07-22T06:42:30.058Z,100869.02
2018-07-22T06:44:59.093Z,100869.53
2018-07-22T06:47:28.193Z,100866.98
2018-07-22T06:49:57.319Z,100869.44
2018-07-22T06:52:26.370Z,100867.97
2018-07-22T06:54:55.614Z,100871.72
2018-07-22T06:57:24.642Z,100867.40
2018-07-22T06:59:53.718Z,100875.81
2018-07-22T07:02:22.826Z,100867.02
2018-07-22T07:04:51.898Z,100864.41
2018-07-22T07:07:20.946Z,100865.16
2018-07-22T07:09:50.032Z,100862.31
2018-07-22T07:12:19.179Z,100865.05
2018-07-22T07:14:48.450Z,100859.59
2018-07-22T07:17:17.544Z,100871.67
2018-07-22T07:19:46.632Z,100869.28
2018-07-22T07:22:16.081Z,100870.92
2018-07-22T07:24:45.321Z,100864.94
2018-07-22T07:27:14.581Z,100863.36
2018-07-22T07:29:43.662Z,100866.52
2018-07-22T07:32:13.113Z,100867.00
2018-07-22T07:34:42.150Z,100876.83
2018-07-22T07:37:11.450Z,100872.55
2018-07-22T07:39:40.547Z,100872.08
2018-07-22T07:42:09.609Z,100867.62
2018-07-22T07:44:38.626Z,100873.02
2018-07-22T07:47:07.710Z,100872.81
2018-07-22T07:49:36.805Z,100879.38
2018-07-22T07:52:05.816Z,100877.47
2018-07-22T07:54:34.994Z,100868.20
2018-07-22T07:57:04.196Z,100874.11
2018-07-22T07:59:33.362Z,100875.58
2018-07-22T08:02:02.367Z,100868.84
2018-07-22T08:04:31.462Z,100869.80
2018-07-22T08:07:00.680Z,100873.55
2018-07-22T08:09:29.884Z,100878.59
2018-07-22T08:11:58.910Z,100874.10
2018-07-22T08:14:28.044Z,100877.77
2018-07-22T08:16:57.134Z,100882.80
2018-07-22T08:19:26.281Z,100879.15
2018-07-22T08:21:55.607Z,100879.97
2018-07-22T08:24:24.473Z,100885.06
2018-07-22T08:26:53.543Z,100886.57
2018-07-22T08:29:26.118Z,100878.27
2018-07-22T08:31:55.226Z,100880.20
2018-07-22T08:34:24.298Z,100879.34
2018-07-22T08:36:53.370Z,100885.70
2018-07-22T08:39:23.666Z,100883.63
2018-07-22T08:41:53.455Z,100875.07
2018-07-22T08:44:22.757Z,100877.27
2018-07-22T08:46:51.819Z,100879.96
2018-07-22T08:49:20.919Z,100877.97
2018-07-22T08:51:49.925Z,100878.66
2018-07-22T08:54:19.178Z,100867.58
2018-07-22T08:56:48.794Z,100867.84
2018-07-22T08:59:17.827Z,100868.66
2018-07-22T09:01:47.090Z,100872.16
2018-07-22T09:04:16.169Z,100876.41
2018-07-22T09:06:45.288Z,100875.62
2018-07-22T09:09:14.949Z,100871.17
2018-07-22T09:11:44.163Z,100876.37
2018-07-22T09:14:13.186Z,100871.48
2018-07-22T09:16:42.235Z,100876.83
2018-07-22T09:19:11.437Z,100868.67
2018-07-22T09:21:40.672Z,100873.52
2018-07-22T09:24:09.745Z,100877.55
2018-07-22T09:26:38.864Z,100874.11
2018-07-22T09:29:07.922Z,100875.83
2018-07-22T09:31:36.944Z,100876.84
2018-07-22T09:34:06.012Z,100877.95
2018-07-22T09:36:35.172Z,100880.49
2018-07-22T09:39:06.767Z,100876.91
2018-07-22T09:41:35.928Z,100880.01
2018-07-22T09:44:04.981Z,100877.76
2018-07-22T09:46:34.103Z,100877.63
2018-07-22T09:49:03.221Z,100877.30
2018-07-22T09:51:32.277Z,100870.13
2018-07-22T09:54:01.530Z,100874.48
2018-07-22T09:56:30.672Z,100875.57
2018-07-22T09:58:59.768Z,100879.38
2018-07-22T10:01:28.891Z,100882.91
2018-07-22T10:03:57.966Z,100873.89
2018-07-22T10:06:27.218Z,100876.07
2018-07-22T10:08:56.381Z,100877.34
2018-07-22T10:11:25.702Z,100880.50
2018-07-22T10:13:54.745Z,100875.78
2018-07-22T10:16:23.761Z,100879.12
2018-07-22T10:18:53.017Z,100882.53
2018-07-22T10:21:22.103Z,100875.89
2018-07-22T10:23:51.202Z,100872.88
2018-07-22T10:26:20.289Z,100876.83
2018-07-22T10:28:50.231Z,100869.38
2018-07-22T10:31:19.539Z,100871.57
2018-07-22T10:33:48.659Z,100870.99
2018-07-22T10:36:17.831Z,100866.64
2018-07-22T10:38:46.934Z,100872.06
2018-07-22T10:41:16.122Z,100864.70
2018-07-22T10:43:45.292Z,100861.52
2018-07-22T10:46:14.445Z,100864.34
2018-07-22T10:48:43.581Z,100867.48
2018-07-22T10:51:12.790Z,100860.08
2018-07-22T10:53:41.875Z,100865.26
2018-07-22T10:56:11.215Z,100868.28
2018-07-22T10:58:40.278Z,100867.94
2018-07-22T11:01:09.419Z,100864.29
2018-07-22T11:03:38.410Z,100864.94
2018-07-22T11:06:07.624Z,100859.43
2018-07-22T11:08:36.670Z,100863.02
2018-07-22T11:11:05.800Z,100856.20
2018-07-22T11:13:35.028Z,100860.37
2018-07-22T11:16:04.080Z,100865.97
2018-07-22T11:18:33.166Z,100862.53
2018-07-22T11:21:02.285Z,100862.10
2018-07-22T11:23:31.484Z,100861.63
2018-07-22T11:26:00.624Z,100861.91
2018-07-22T11:28:29.700Z,100855.89
2018-07-22T11:30:58.797Z,100854.41
2018-07-22T11:33:27.814Z,100859.52
2018-07-22T11:35:57.100Z,100859.92
2018-07-22T11:38:26.261Z,100859.79
2018-07-22T11:40:55.303Z,100864.99
2018-07-22T11:43:24.647Z,100864.79
2018-07-22T11:45:53.946Z,100859.19
2018-07-22T11:48:23.010Z,100859.56
2018-07-22T11:50:52.464Z,100861.52
2018-07-22T11:53:23.186Z,100857.03
2018-07-22T11:55:52.395Z,100853.16
2018-07-22T11:58:22.668Z,100856.95
2018-07-22T12:00:51.798Z,100860.46
2018-07-22T12:03:20.930Z,100861.18
2018-07-22T12:05:50.272Z,100856.92
2018-07-22T12:08:19.344Z,100863.84
2018-07-22T12:10:48.771Z,100854.20
2018-07-22T12:13:17.842Z,100850.27
2018-07-22T12:15:47.142Z,100858.12
2018-07-22T12:18:16.288Z,100857.44
2018-07-22T12:20:45.634Z,100863.78
2018-07-22T12:23:14.720Z,100863.45
2018-07-22T12:25:43.884Z,100866.20
2018-07-22T12:28:13.010Z,100856.94
2018-07-22T12:30:42.069Z,100863.59
2018-07-22T12:33:11.133Z,100864.89
2018-07-22T12:35:40.284Z,100855.88
2018-07-22T12:38:09.366Z,100860.41
2018-07-22T12:40:38.996Z,100854.33
2018-07-22T12:43:08.061Z,100857.39
2018-07-22T12:45:37.180Z,100852.39
2018-07-22T12:48:06.218Z,100850.28
2018-07-22T12:50:35.279Z,100849.09
2018-07-22T12:53:04.398Z,100850.00
2018-07-22T12:55:33.491Z,100843.23
2018-07-22T12:58:02.600Z,100847.48
2018-07-22T13:00:31.674Z,100839.63
2018-07-22T13:03:00.888Z,100838.10
2018-07-22T13:05:30.064Z,100841.22
2018-07-22T13:07:59.135Z,100833.61
2018-07-22T13:10:28.174Z,100832.33
2018-07-22T13:12:57.392Z,100830.59
2018-07-22T13:15:26.676Z,100833.23
2018-07-22T13:17:55.766Z,100831.34
2018-07-22T13:20:24.848Z,100828.53
2018-07-22T13:22:53.916Z,100819.58
2018-07-22T13:25:22.990Z,100817.34
2018-07-22T13:27:52.608Z,100818.55
2018-07-22T13:30:21.932Z,100818.65
2018-07-22T13:32:51.011Z,100815.08
2018-07-22T13:35:20.349Z,100818.55
2018-07-22T13:37:49.398Z,100819.07
2018-07-22T13:40:19.164Z,100822.13
2018-07-22T13:42:49.246Z,100818.03
2018-07-22T13:45:18.425Z,100818.02
2018-07-22T13:47:47.468Z,100818.66
2018-07-22T13:50:16.615Z,100816.93
2018-07-22T13:52:45.807Z,100812.63
2018-07-22T13:55:14.910Z,100808.77
2018-07-22T13:57:44.245Z,100814.91
2018-07-22T14:00:13.452Z,100814.20
2018-07-22T14:02:42.619Z,100814.09
2018-07-22T14:05:11.927Z,100813.31
2018-07-22T14:07:41.044Z,100814.61
2018-07-22T14:10:10.337Z,100810.02
2018-07-22T14:12:39.617Z,100798.05
2018-07-22T14:15:08.885Z,100798.77
2018-07-22T14:17:37.982Z,100795.06
2018-07-22T14:20:07.276Z,100797.45
2018-07-22T14:22:36.311Z,100796.78
2018-07-22T14:25:06.282Z,100796.59
2018-07-22T14:27:35.556Z,100801.49
2018-07-22T14:30:05.667Z,100795.11
2018-07-22T14:32:34.751Z,100797.50
2018-07-22T14:35:03.860Z,100797.78
2018-07-22T14:37:33.025Z,100795.84
2018-07-22T14:40:02.246Z,100793.90
2018-07-22T14:42:31.394Z,100789.89
2018-07-22T14:45:00.556Z,100801.28
2018-07-22T14:47:29.589Z,100802.28
2018-07-22T14:49:58.754Z,100806.33
2018-07-22T14:52:28.094Z,100806.14
2018-07-22T14:54:57.131Z,100807.01
2018-07-22T14:57:26.211Z,100804.97
2018-07-22T14:59:56.234Z,100800.31
2018-07-22T15:02:25.376Z,100809.16
2018-07-22T15:04:54.502Z,100804.06
2018-07-22T15:07:23.941Z,100811.58
2018-07-22T15:09:53.170Z,100805.73
2018-07-22T15:12:22.221Z,100809.19
2018-07-22T15:14:51.360Z,100814.53
2018-07-22T15:17:20.401Z,100807.75
2018-07-22T15:19:49.512Z,100812.69
2018-07-22T15:22:18.705Z,100807.23
2018-07-22T15:24:47.863Z,100805.03
2018-07-22T15:27:16.985Z,100797.38
2018-07-22T15:29:46.092Z,100805.75
2018-07-22T15:32:15.204Z,100808.75
2018-07-22T15:34:44.384Z,100803.98
2018-07-22T15:37:13.836Z,100805.99
2018-07-22T15:39:43.001Z,100804.41
2018-07-22T15:42:12.064Z,100806.36
2018-07-22T15:44:41.852Z,100807.95
2018-07-22T15:47:10.953Z,100806.63
2018-07-22T15:49:40.124Z,100804.66
2018-07-22T15:52:09.085Z,100809.02
2018-07-22T15:54:38.181Z,100809.09
2018-07-22T15:57:07.224Z,100807.75
2018-07-22T15:59:36.255Z,100807.50
2018-07-22T16:02:05.335Z,100808.84
2018-07-22T16:04:34.521Z,100808.09
2018-07-22T16:07:03.655Z,100809.67
2018-07-22T16:09:32.866Z,100809.63
2018-07-22T16:12:02.243Z,100802.81
2018-07-22T16:14:31.436Z,100801.71
2018-07-22T16:17:00.701Z,100803.56
2018-07-22T16:19:29.724Z,100806.53
2018-07-22T16:21:58.861Z,100809.22
2018-07-22T16:24:28.028Z,100806.41
2018-07-22T16:26:57.439Z,100803.93
2018-07-22T16:29:26.726Z,100804.88
2018-07-22T16:31:55.886Z,100805.34
2018-07-22T16:34:24.913Z,100806.23
2018-07-22T16:36:53.983Z,100802.98
2018-07-22T16:39:23.098Z,100797.52
2018-07-22T16:41:52.162Z,100797.52
2018-07-22T16:44:21.264Z,100790.89
2018-07-22T16:46:50.564Z,100795.17
2018-07-22T16:49:20.312Z,100788.11
2018-07-22T16:51:49.491Z,100791.67
2018-07-22T16:54:18.644Z,100781.91
2018-07-22T16:56:47.714Z,100781.86
2018-07-22T16:59:16.793Z,100777.05
2018-07-22T17:01:45.857Z,100780.72
2018-07-22T17:04:14.949Z,100778.89
2018-07-22T17:06:43.978Z,100772.83
2018-07-22T17:09:13.356Z,100773.75
2018-07-22T17:11:42.538Z,100772.48
2018-07-22T17:14:11.720Z,100774.30
2018-07-22T17:16:41.139Z,100779.30
2018-07-22T17:19:10.245Z,100778.72
2018-07-22T17:21:39.428Z,100776.34
2018-07-22T17:24:08.602Z,100781.58
2018-07-22T17:26:37.739Z,100783.12
2018-07-22T17:29:06.779Z,100780.98
2018-07-22T17:31:35.819Z,100780.03
2018-07-22T17:34:05.153Z,100775.76
2018-07-22T17:36:34.511Z,100777.64
2018-07-22T17:39:03.903Z,100773.95
2018-07-22T17:41:35.926Z,100778.75
2018-07-22T17:44:05.637Z,100777.89
2018-07-22T17:46:34.852Z,100781.06
2018-07-22T17:49:03.930Z,100775.83
2018-07-22T17:51:33.347Z,100774.30
2018-07-22T17:54:02.739Z,100777.67
2018-07-22T17:56:31.785Z,100775.38
2018-07-22T17:59:00.929Z,100780.16
2018-07-22T18:01:30.027Z,100779.73
2018-07-22T18:03:59.674Z,100788.41
2018-07-22T18:06:28.815Z,100784.33
2018-07-22T18:08:58.016Z,100790.63
2018-07-22T18:11:27.040Z,100802.84
2018-07-22T18:13:56.355Z,100803.35
2018-07-22T18:16:25.461Z,100804.79
2018-07-22T18:18:54.517Z,100807.75
2018-07-22T18:21:24.047Z,100807.36
2018-07-22T18:23:53.090Z,100812.34
2018-07-22T18:26:22.254Z,100814.03
2018-07-22T18:28:51.407Z,100813.61
2018-07-22T18:31:21.089Z,100816.16
2018-07-22T18:33:50.840Z,100815.71
2018-07-22T18:36:19.992Z,100822.98
2018-07-22T18:38:49.242Z,100825.02
2018-07-22T18:41:18.360Z,100823.85
2018-07-22T18:43:47.417Z,100827.69
2018-07-22T18:46:16.548Z,100829.65
2018-07-22T18:48:45.686Z,100836.16
2018-07-22T18:51:15.656Z,100836.80
2018-07-22T18:53:44.768Z,100831.73
2018-07-22T18:56:14.211Z,100837.86
2018-07-22T18:58:43.343Z,100838.87
2018-07-22T19:01:12.501Z,100848.33
2018-07-22T19:03:41.585Z,100850.09
2018-07-22T19:06:10.683Z,100848.86
2018-07-22T19:08:39.811Z,100854.17
2018-07-22T19:11:08.967Z,100860.63
2018-07-22T19:13:38.061Z,100867.04
2018-07-22T19:16:08.142Z,100867.30
2018-07-22T19:18:37.596Z,100872.14
2018-07-22T19:21:06.825Z,100871.03
2018-07-22T19:23:36.103Z,100873.61
2018-07-22T19:26:05.235Z,100889.30
2018-07-22T19:28:34.580Z,100887.33
2018-07-22T19:31:03.733Z,100889.64
2018-07-22T19:33:33.034Z,100897.52
2018-07-22T19:36:02.073Z,100896.55
2018-07-22T19:38:31.326Z,100905.25
2018-07-22T19:41:00.679Z,100914.02
2018-07-22T19:43:29.877Z,100914.05
2018-07-22T19:45:59.079Z,100912.23
2018-07-22T19:48:28.380Z,100915.64
2018-07-22T19:50:57.464Z,100914.87
2018-07-22T19:53:26.811Z,100917.30
2018-07-22T19:55:55.941Z,100921.37
2018-07-22T19:58:25.073Z,100919.69
2018-07-22T20:00:55.070Z,100926.97
2018-07-22T20:03:24.444Z,100929.97
2018-07-22T20:05:53.544Z,100929.36
2018-07-22T20:08:22.573Z,100936.11
2018-07-22T20:10:51.614Z,100942.97
2018-07-22T20:13:20.913Z,100942.39
2018-07-22T20:15:50.063Z,100941.16
2018-07-22T20:18:19.103Z,100944.38
2018-07-22T20:20:48.355Z,100945.24
2018-07-22T20:23:17.445Z,100949.48
2018-07-22T20:25:46.599Z,100950.67
2018-07-22T20:28:15.741Z,100957.94
2018-07-22T20:30:44.790Z,100947.87
2018-07-22T20:33:13.976Z,100947.53
2018-07-22T20:35:43.102Z,100944.02
2018-07-22T20:38:12.551Z,100950.37
2018-07-22T20:40:41.878Z,100952.88
2018-07-22T20:43:11.495Z,100952.10
2018-07-22T20:45:40.814Z,100953.53
2018-07-22T20:48:09.885Z,100953.91
2018-07-22T20:50:39.591Z,100948.46
2018-07-22T20:53:08.625Z,100952.75
2018-07-22T20:55:37.923Z,100957.52
2018-07-22T20:58:07.134Z,100958.37
2018-07-22T21:00:41.097Z,100959.09
2018-07-22T21:03:11.178Z,100963.69
2018-07-22T21:05:40.231Z,100964.21
2018-07-22T21:08:09.356Z,100961.27
2018-07-22T21:10:39.012Z,100968.75
2018-07-22T21:13:17.474Z,100964.10
2018-07-22T21:15:46.638Z,100966.80
2018-07-22T21:18:16.063Z,100969.06
2018-07-22T21:20:45.341Z,100974.00
2018-07-22T21:23:14.636Z,100980.52
2018-07-22T21:25:44.038Z,100970.13
2018-07-22T21:28:13.212Z,100977.42
2018-07-22T21:30:42.476Z,100976.31
2018-07-22T21:33:11.773Z,100972.39
2018-07-22T21:35:41.771Z,100976.75
2018-07-22T21:38:11.250Z,100973.73
2018-07-22T21:40:40.590Z,100980.53
2018-07-22T21:43:09.794Z,100978.33
2018-07-22T21:45:38.915Z,100978.95
2018-07-22T21:48:08.146Z,100984.33
2018-07-22T21:50:37.316Z,100985.51
2018-07-22T21:53:06.651Z,100976.65
2018-07-22T21:55:35.812Z,100978.54
2018-07-22T21:58:05.123Z,100977.21
2018-07-22T22:00:39.751Z,100979.89
2018-07-22T22:03:09.039Z,100985.47
2018-07-22T22:05:38.212Z,100991.25
2018-07-22T22:08:14.001Z,100989.09
2018-07-22T22:10:43.457Z,100989.23
2018-07-22T22:13:12.708Z,100989.77
2018-07-22T22:15:41.895Z,100991.04
2018-07-22T22:18:11.144Z,100985.05
2018-07-22T22:20:40.474Z,100989.95
2018-07-22T22:23:09.651Z,100985.11
2018-07-22T22:25:38.837Z,100991.38
2018-07-22T22:28:07.947Z,100991.52
2018-07-22T22:30:37.032Z,100987.55
2018-07-22T22:33:06.341Z,100987.09
2018-07-22T22:35:36.044Z,100991.12
2018-07-22T22:38:05.316Z,100995.95
2018-07-22T22:40:34.399Z,100993.30
2018-07-22T22:43:03.723Z,100992.03
2018-07-22T22:45:32.875Z,100995.27
2018-07-22T22:48:02.030Z,100992.16
2018-07-22T22:50:31.325Z,100995.22
2018-07-22T22:53:01.143Z,100999.19
2018-07-22T22:55:30.203Z,100997.19
2018-07-22T22:59:14.547Z,100994.05
2018-07-22T23:01:43.786Z,100992.80
2018-07-22T23:04:12.919Z,100993.11
2018-07-22T23:06:42.025Z,100994.34
2018-07-22T23:09:12.786Z,100992.16
2018-07-22T23:11:42.148Z,100986.70
2018-07-22T23:14:11.243Z,100984.88
2018-07-22T23:16:40.807Z,100990.83
2018-07-22T23:19:09.885Z,100984.51
2018-07-22T23:21:39.140Z,100988.59
2018-07-22T23:24:08.206Z,100983.89
2018-07-22T23:26:37.303Z,100986.09
2018-07-22T23:29:06.431Z,100982.88
2018-07-22T23:31:35.615Z,100980.70
2018-07-22T23:34:05.334Z,100983.40
2018-07-22T23:36:34.531Z,100984.00
2018-07-22T23:39:03.960Z,100983.54
2018-07-22T23:41:33.217Z,100984.95
2018-07-22T23:44:02.317Z,100988.12
2018-07-22T23:46:31.556Z,100988.62
2018-07-22T23:49:00.607Z,100991.73
2018-07-22T23:51:29.697Z,100987.80
2018-07-22T23:53:58.822Z,100987.39
2018-07-22T23:56:27.906Z,100994.02
2018-07-22T23:58:56.955Z,100999.77
